createdAt,value
2022-10-10T00:01:26.764Z,9.97
2022-10-10T00:03:55.394Z,10.60
2022-10-10T00:06:26.367Z,9.33
2022-10-10T00:08:58.564Z,9.63
2022-10-10T00:11:28.194Z,11.57
2022-10-10T00:13:57.387Z,12.73
2022-10-10T00:16:25.821Z,11.40
2022-10-10T00:18:54.345Z,12.63
2022-10-10T00:21:22.708Z,13.20
2022-10-10T00:23:51.174Z,13.13
2022-10-10T00:26:19.657Z,11.90
2022-10-10T00:28:49.887Z,11.17
2022-10-10T00:31:18.156Z,11.40
2022-10-10T00:33:46.603Z,12.67
2022-10-10T00:36:15.324Z,12.33
2022-10-10T00:38:44.130Z,12.10
2022-10-10T00:41:12.463Z,12.77
2022-10-10T00:43:41.290Z,14.37
2022-10-10T00:46:10.996Z,12.50
2022-10-10T00:48:42.299Z,13.70
2022-10-10T00:51:13.906Z,11.70
2022-10-10T00:53:45.891Z,12.37
2022-10-10T00:56:16.574Z,14.50
2022-10-10T00:58:48.118Z,13.13
2022-10-10T01:01:18.015Z,13.33
2022-10-10T01:03:46.645Z,14.33
2022-10-10T01:06:15.154Z,15.33
2022-10-10T01:08:44.048Z,15.20
2022-10-10T01:11:27.420Z,13.57
2022-10-10T01:14:04.272Z,12.20
2022-10-10T01:16:39.148Z,11.40
2022-10-10T01:19:25.542Z,12.17
2022-10-10T01:22:05.935Z,12.23
2022-10-10T01:24:56.209Z,12.47
2022-10-10T01:27:32.378Z,12.30
2022-10-10T01:30:07.563Z,13.47
2022-10-10T01:32:42.217Z,11.63
2022-10-10T01:35:29.528Z,15.93
2022-10-10T01:38:06.484Z,14.97
2022-10-10T01:40:40.610Z,13.30
2022-10-10T01:43:10.114Z,13.80
2022-10-10T01:45:44.942Z,12.60
2022-10-10T01:48:13.537Z,13.97
2022-10-10T01:51:00.483Z,13.97
2022-10-10T01:53:38.354Z,14.10
2022-10-10T01:56:14.792Z,14.47
2022-10-10T01:58:57.223Z,13.30
2022-10-10T02:01:35.299Z,12.53
2022-10-10T02:04:08.737Z,12.83
2022-10-10T02:06:42.021Z,13.03
2022-10-10T02:09:14.521Z,13.23
2022-10-10T02:11:43.791Z,13.63
2022-10-10T02:14:16.393Z,13.23
2022-10-10T02:16:48.398Z,14.33
2022-10-10T02:19:19.813Z,14.17
2022-10-10T02:21:51.649Z,13.23
2022-10-10T02:24:24.021Z,13.57
2022-10-10T02:26:57.447Z,11.40
2022-10-10T02:29:30.002Z,12.17
2022-10-10T02:32:04.688Z,13.13
2022-10-10T02:34:36.865Z,12.90
2022-10-10T02:37:08.029Z,12.73
2022-10-10T02:39:41.105Z,12.47
2022-10-10T02:42:11.675Z,11.47
2022-10-10T02:44:40.847Z,12.10
2022-10-10T02:47:10.828Z,12.23
2022-10-10T02:49:40.865Z,12.97
2022-10-10T02:52:09.674Z,10.87
2022-10-10T02:54:37.823Z,13.03
2022-10-10T02:57:06.499Z,13.20
2022-10-10T02:59:34.987Z,12.63
2022-10-10T03:02:03.331Z,12.03
2022-10-10T03:04:32.891Z,11.87
2022-10-10T03:07:01.352Z,12.27
2022-10-10T03:09:29.677Z,10.90
2022-10-10T03:11:58.271Z,11.80
2022-10-10T03:14:26.594Z,11.63
2022-10-10T03:16:55.096Z,10.63
2022-10-10T03:19:23.243Z,11.80
2022-10-10T03:21:52.973Z,12.23
2022-10-10T03:24:21.429Z,11.47
2022-10-10T03:26:49.627Z,11.43
2022-10-10T03:29:18.235Z,12.93
2022-10-10T03:31:46.662Z,12.50
2022-10-10T03:34:15.127Z,12.40
2022-10-10T03:36:43.336Z,12.13
2022-10-10T03:39:13.196Z,12.17
2022-10-10T03:41:41.484Z,11.97
2022-10-10T03:44:09.864Z,11.97
2022-10-10T03:46:38.265Z,12.17
2022-10-10T03:49:06.850Z,11.67
2022-10-10T03:51:34.917Z,12.30
2022-10-10T03:54:03.376Z,13.00
2022-10-10T03:56:33.073Z,13.80
2022-10-10T03:59:03.773Z,12.83
2022-10-10T04:01:32.263Z,13.87
2022-10-10T04:04:01.280Z,14.53
2022-10-10T04:06:29.605Z,12.40
2022-10-10T04:08:57.888Z,12.67
2022-10-10T04:11:26.093Z,12.10
2022-10-10T04:13:55.707Z,12.17
2022-10-10T04:16:23.796Z,12.53
2022-10-10T04:18:52.074Z,11.93
2022-10-10T04:21:20.251Z,12.53
2022-10-10T04:23:48.797Z,13.03
2022-10-10T04:26:16.884Z,12.10
2022-10-10T04:28:45.541Z,12.93
2022-10-10T04:31:15.304Z,12.27
2022-10-10T04:33:43.595Z,12.80
2022-10-10T04:36:11.942Z,11.63
2022-10-10T04:38:40.690Z,11.93
2022-10-10T04:41:09.109Z,12.33
2022-10-10T04:43:37.494Z,11.33
2022-10-10T04:46:05.868Z,13.33
2022-10-10T04:48:35.840Z,11.90
2022-10-10T04:51:04.261Z,13.10
2022-10-10T04:53:33.155Z,12.07
2022-10-10T04:56:01.286Z,11.73
2022-10-10T04:58:29.780Z,12.27
2022-10-10T05:00:58.090Z,11.53
2022-10-10T05:03:26.870Z,13.00
2022-10-10T05:05:56.414Z,12.70
2022-10-10T05:08:25.145Z,12.20
2022-10-10T05:10:53.749Z,13.10
2022-10-10T05:13:22.088Z,12.07
2022-10-10T05:15:52.505Z,11.63
2022-10-10T05:18:21.135Z,13.97
2022-10-10T05:20:49.701Z,12.30
2022-10-10T05:23:19.378Z,11.23
2022-10-10T05:25:50.126Z,13.43
2022-10-10T05:28:18.837Z,11.40
2022-10-10T05:30:47.203Z,12.03
2022-10-10T05:33:15.618Z,11.43
2022-10-10T05:35:43.713Z,11.87
2022-10-10T05:38:11.986Z,11.13
2022-10-10T05:40:42.116Z,13.10
2022-10-10T05:43:11.057Z,11.90
2022-10-10T05:45:39.199Z,12.00
2022-10-10T05:48:07.828Z,12.33
2022-10-10T05:50:39.349Z,14.30
2022-10-10T05:53:08.003Z,13.43
2022-10-10T05:55:36.754Z,13.60
2022-10-10T05:58:06.728Z,14.23
2022-10-10T06:00:36.539Z,13.70
2022-10-10T06:03:05.273Z,12.77
2022-10-10T06:05:34.100Z,11.13
2022-10-10T06:08:09.355Z,12.50
2022-10-10T06:10:41.594Z,11.50
2022-10-10T06:13:11.852Z,12.20
2022-10-10T06:15:41.221Z,12.20
2022-10-10T06:18:10.085Z,13.60
2022-10-10T06:20:40.541Z,12.90
2022-10-10T06:23:09.711Z,12.43
2022-10-10T06:25:41.153Z,12.17
2022-10-10T06:28:11.839Z,11.37
2022-10-10T06:30:43.832Z,13.13
2022-10-10T06:33:13.580Z,11.57
2022-10-10T06:35:42.973Z,11.03
2022-10-10T06:38:12.292Z,11.10
2022-10-10T06:40:41.282Z,13.67
2022-10-10T06:43:13.126Z,10.67
2022-10-10T06:45:43.721Z,10.57
2022-10-10T06:48:14.379Z,10.93
2022-10-10T06:50:42.696Z,9.40
2022-10-10T06:53:11.307Z,11.20
2022-10-10T06:55:39.555Z,10.73
2022-10-10T06:58:08.435Z,10.37
2022-10-10T07:00:37.913Z,10.73
2022-10-10T07:03:06.328Z,10.27
2022-10-10T07:05:34.463Z,11.07
2022-10-10T07:08:02.837Z,11.23
2022-10-10T07:10:30.933Z,11.30
2022-10-10T07:12:59.297Z,9.57
2022-10-10T07:15:27.497Z,9.97
2022-10-10T07:18:00.905Z,9.60
2022-10-10T07:20:29.176Z,11.03
2022-10-10T07:22:57.806Z,11.23
2022-10-10T07:25:26.411Z,9.77
2022-10-10T07:27:54.791Z,9.87
2022-10-10T07:30:22.860Z,10.13
2022-10-10T07:32:51.702Z,9.77
2022-10-10T07:35:21.777Z,9.97
2022-10-10T07:37:50.288Z,10.03
2022-10-10T07:40:18.535Z,10.23
2022-10-10T07:42:47.069Z,9.63
2022-10-10T07:45:15.510Z,10.40
2022-10-10T07:47:43.904Z,10.10
2022-10-10T07:50:12.794Z,11.10
2022-10-10T07:52:42.616Z,9.53
2022-10-10T07:55:11.528Z,9.00
2022-10-10T07:57:40.029Z,9.70
2022-10-10T08:00:10.442Z,10.00
2022-10-10T08:02:42.431Z,9.60
2022-10-10T08:05:12.991Z,10.40
2022-10-10T08:07:42.739Z,9.60
2022-10-10T08:10:11.219Z,9.83
2022-10-10T08:12:39.844Z,9.97
2022-10-10T08:15:08.911Z,9.53
2022-10-10T08:17:37.814Z,10.30
2022-10-10T08:20:07.530Z,11.33
2022-10-10T08:22:35.901Z,10.13
2022-10-10T08:25:06.047Z,10.00
2022-10-10T08:27:34.607Z,9.47
2022-10-10T08:30:02.746Z,10.17
2022-10-10T08:32:31.583Z,9.67
2022-10-10T08:34:59.876Z,9.67
2022-10-10T08:37:31.828Z,10.27
2022-10-10T08:40:05.054Z,8.93
2022-10-10T08:42:42.013Z,9.70
2022-10-10T08:45:17.755Z,9.47
2022-10-10T08:47:50.398Z,10.63
2022-10-10T08:50:24.405Z,12.13
2022-10-10T08:52:58.708Z,16.80
2022-10-10T08:55:33.586Z,14.67
2022-10-10T08:58:06.930Z,10.37
2022-10-10T09:00:40.911Z,10.90
2022-10-10T09:03:20.202Z,10.13
2022-10-10T09:06:05.696Z,9.03
2022-10-10T09:08:49.906Z,9.80
2022-10-10T09:11:34.305Z,9.63
2022-10-10T09:14:18.623Z,8.50
2022-10-10T09:16:54.300Z,9.10
2022-10-10T09:19:34.825Z,8.70
2022-10-10T09:22:09.574Z,8.57
2022-10-10T09:24:43.629Z,7.67
2022-10-10T09:27:17.617Z,8.10
2022-10-10T09:29:51.858Z,8.03
2022-10-10T09:32:23.236Z,8.10
2022-10-10T09:34:56.202Z,7.27
2022-10-10T09:37:46.185Z,8.17
2022-10-10T09:40:23.594Z,7.67
2022-10-10T09:42:53.180Z,6.90
2022-10-10T09:45:28.131Z,6.80
2022-10-10T09:47:57.570Z,5.70
2022-10-10T09:50:26.412Z,6.47
2022-10-10T09:52:55.317Z,6.43
2022-10-10T09:55:27.558Z,6.47
2022-10-10T09:58:03.602Z,7.63
2022-10-10T10:00:37.103Z,7.03
2022-10-10T10:03:17.056Z,7.38
2022-10-10T10:05:48.270Z,6.88
2022-10-10T10:08:22.982Z,6.57
2022-10-10T10:10:51.576Z,6.07
2022-10-10T10:13:26.187Z,6.03
2022-10-10T10:16:11.090Z,6.45
2022-10-10T10:18:41.667Z,6.68
2022-10-10T10:21:14.412Z,6.43
2022-10-10T10:23:44.938Z,5.97
2022-10-10T10:26:20.593Z,6.15
2022-10-10T10:28:51.826Z,6.43
2022-10-10T10:31:48.178Z,5.78
2022-10-10T10:34:38.077Z,6.15
2022-10-10T10:37:18.891Z,6.00
2022-10-10T10:39:59.765Z,5.72
2022-10-10T10:42:47.342Z,5.78
2022-10-10T10:45:21.804Z,6.05
2022-10-10T10:48:00.820Z,6.32
2022-10-10T10:50:45.703Z,5.90
2022-10-10T10:53:22.878Z,6.72
2022-10-10T10:55:55.983Z,5.60
2022-10-10T11:01:56.922Z,5.50
2022-10-10T11:05:25.202Z,4.90
2022-10-10T11:07:50.222Z,5.00
2022-10-10T11:10:28.973Z,5.65
2022-10-10T11:13:04.102Z,5.00
2022-10-10T11:18:36.186Z,5.88
2022-10-10T11:21:10.256Z,4.65
2022-10-10T11:23:44.440Z,6.05
2022-10-10T11:26:21.021Z,5.10
2022-10-10T11:28:54.891Z,5.05
2022-10-10T11:31:27.302Z,4.97
2022-10-10T11:34:00.984Z,5.00
2022-10-10T11:36:32.740Z,5.03
2022-10-10T11:39:05.411Z,5.50
2022-10-10T11:41:41.728Z,4.15
2022-10-10T11:44:16.282Z,4.75
2022-10-10T11:46:51.697Z,4.47
2022-10-10T11:49:31.986Z,4.85
2022-10-10T11:52:33.138Z,5.00
2022-10-10T11:55:10.973Z,4.68
2022-10-10T11:57:46.363Z,4.43
2022-10-10T12:00:16.738Z,5.40
2022-10-10T12:02:47.659Z,5.60
2022-10-10T12:05:25.845Z,5.10
2022-10-10T12:08:11.495Z,6.30
2022-10-10T12:10:46.762Z,7.53
2022-10-10T12:13:28.989Z,6.88
2022-10-10T12:16:02.742Z,6.68
2022-10-10T12:18:39.574Z,7.18
2022-10-10T12:21:11.976Z,6.50
2022-10-10T12:23:42.878Z,5.20
2022-10-10T12:26:20.145Z,5.95
2022-10-10T12:29:04.438Z,5.57
2022-10-10T12:31:35.967Z,5.88
2022-10-10T12:34:14.436Z,5.95
2022-10-10T12:37:00.462Z,5.63
2022-10-10T12:39:38.252Z,5.00
2022-10-10T12:42:27.945Z,7.40
2022-10-10T12:44:56.417Z,6.10
2022-10-10T12:48:04.012Z,5.65
2022-10-10T12:50:36.026Z,5.40
2022-10-10T12:53:08.057Z,5.85
2022-10-10T12:55:43.585Z,4.88
2022-10-10T12:58:26.661Z,6.07
2022-10-10T13:00:57.608Z,5.45
2022-10-10T13:03:31.014Z,5.38
2022-10-10T13:06:06.435Z,4.70
2022-10-10T13:08:38.300Z,5.22
2022-10-10T13:11:10.795Z,4.78
2022-10-10T13:13:40.373Z,5.32
2022-10-10T13:16:10.782Z,5.88
2022-10-10T13:18:41.189Z,4.78
2022-10-10T13:21:12.394Z,5.10
2022-10-10T13:26:40.585Z,6.22
2022-10-10T13:29:29.927Z,4.97
2022-10-10T13:32:01.998Z,5.53
2022-10-10T13:34:32.854Z,5.40
2022-10-10T13:37:03.633Z,5.00
2022-10-10T13:39:35.620Z,5.72
2022-10-10T13:42:05.749Z,5.55
2022-10-10T13:44:47.834Z,5.32
2022-10-10T13:47:43.311Z,5.13
2022-10-10T13:50:21.229Z,5.38
2022-10-10T13:52:49.719Z,4.75
2022-10-10T13:55:25.537Z,5.55
2022-10-10T13:57:59.474Z,5.60
2022-10-10T14:00:32.690Z,5.30
2022-10-10T14:03:01.404Z,5.45
2022-10-10T14:05:32.479Z,5.32
2022-10-10T14:08:01.247Z,5.53
2022-10-10T14:10:36.020Z,5.55
2022-10-10T14:13:05.018Z,5.93
2022-10-10T14:15:44.087Z,5.57
2022-10-10T14:18:17.903Z,5.80
2022-10-10T14:20:47.071Z,5.53
2022-10-10T14:23:15.988Z,6.10
2022-10-10T14:25:48.931Z,5.90
2022-10-10T14:28:20.248Z,5.65
2022-10-10T14:30:49.182Z,4.78
2022-10-10T14:33:19.484Z,4.93
2022-10-10T14:35:50.353Z,5.57
2022-10-10T14:38:18.939Z,5.22
2022-10-10T14:40:50.497Z,5.13
2022-10-10T14:43:22.610Z,5.80
2022-10-10T14:45:52.843Z,5.88
2022-10-10T14:48:21.476Z,5.88
2022-10-10T14:50:51.189Z,5.30
2022-10-10T14:53:19.867Z,5.68
2022-10-10T14:55:53.849Z,6.30
2022-10-10T14:58:24.365Z,5.72
2022-10-10T15:00:54.317Z,5.75
2022-10-10T15:03:23.131Z,5.55
2022-10-10T15:05:51.611Z,6.57
2022-10-10T15:08:20.315Z,6.28
2022-10-10T15:10:49.945Z,5.63
2022-10-10T15:13:18.213Z,5.55
2022-10-10T15:15:48.109Z,5.35
2022-10-10T15:18:47.828Z,6.00
2022-10-10T15:21:09.820Z,6.20
2022-10-10T15:23:38.012Z,6.28
2022-10-10T15:26:08.258Z,6.53
2022-10-10T15:28:36.724Z,6.35
2022-10-10T15:31:05.881Z,6.32
2022-10-10T15:33:34.476Z,6.07
2022-10-10T15:36:09.994Z,6.38
2022-10-10T15:38:39.261Z,6.05
2022-10-10T15:41:10.906Z,6.05
2022-10-10T15:43:44.992Z,6.38
2022-10-10T15:46:13.157Z,6.40
2022-10-10T15:48:41.463Z,6.40
2022-10-10T15:51:10.525Z,7.57
2022-10-10T15:53:38.945Z,6.75
2022-10-10T15:56:10.482Z,6.53
2022-10-10T15:58:40.011Z,6.97
2022-10-10T16:01:15.188Z,6.25
2022-10-10T16:03:44.214Z,7.78
2022-10-10T16:06:13.137Z,6.63
2022-10-10T16:08:41.296Z,7.07
2022-10-10T16:11:13.193Z,7.55
2022-10-10T16:13:42.761Z,6.90
2022-10-10T16:16:12.904Z,7.47
2022-10-10T16:18:42.798Z,7.10
2022-10-10T16:21:13.807Z,12.77
2022-10-10T16:23:42.918Z,11.10
2022-10-10T16:26:16.648Z,11.20
2022-10-10T16:28:45.172Z,13.70
2022-10-10T16:31:15.242Z,11.60
2022-10-10T16:33:43.952Z,11.93
2022-10-10T16:36:14.578Z,13.50
2022-10-10T16:38:43.546Z,12.43
2022-10-10T16:41:35.320Z,13.00
2022-10-10T16:44:03.269Z,18.80
2022-10-10T16:46:31.354Z,15.43
2022-10-10T16:49:00.740Z,9.85
2022-10-10T16:51:30.400Z,8.68
2022-10-10T16:54:01.708Z,8.40
2022-10-10T16:56:31.582Z,7.43
2022-10-10T16:59:00.693Z,8.15
2022-10-10T17:01:30.017Z,12.95
2022-10-10T17:04:00.137Z,13.10
2022-10-10T17:06:34.819Z,11.23
2022-10-10T17:09:05.739Z,12.60
2022-10-10T17:11:35.925Z,12.02
2022-10-10T17:14:04.580Z,11.45
2022-10-10T17:19:21.476Z,9.68
2022-10-10T17:21:49.947Z,9.13
2022-10-10T17:24:18.327Z,8.98
2022-10-10T17:26:48.225Z,13.60
2022-10-10T17:29:16.394Z,14.40
2022-10-10T17:31:44.953Z,15.15
2022-10-10T17:34:13.402Z,11.95
2022-10-10T17:36:41.515Z,11.75
2022-10-10T17:39:09.958Z,12.25
2022-10-10T17:41:38.943Z,13.90
2022-10-10T17:44:10.611Z,17.83
2022-10-10T17:46:39.765Z,14.93
2022-10-10T17:49:10.778Z,14.50
2022-10-10T17:51:41.484Z,13.27
2022-10-10T17:54:10.582Z,12.73
2022-10-10T17:56:39.063Z,14.63
2022-10-10T17:59:09.513Z,15.68
2022-10-10T18:01:38.703Z,18.85
2022-10-10T18:04:07.799Z,14.70
2022-10-10T18:06:38.263Z,15.98
2022-10-10T18:09:07.362Z,16.13
2022-10-10T18:11:35.530Z,14.18
2022-10-10T18:14:03.749Z,11.90
2022-10-10T18:16:34.806Z,11.70
2022-10-10T18:19:04.280Z,11.15
2022-10-10T18:21:32.753Z,11.00
2022-10-10T18:24:01.647Z,10.82
2022-10-10T18:26:31.326Z,11.75
2022-10-10T18:29:00.144Z,11.77
2022-10-10T18:31:30.064Z,11.60
2022-10-10T18:33:59.696Z,12.18
2022-10-10T18:36:30.668Z,13.63
2022-10-10T18:38:59.779Z,13.05
2022-10-10T18:41:33.839Z,13.90
2022-10-10T18:44:03.581Z,11.88
2022-10-10T18:46:32.018Z,12.63
2022-10-10T18:49:02.131Z,12.73
2022-10-10T18:51:31.154Z,13.75
2022-10-10T18:54:03.245Z,12.50
2022-10-10T18:56:33.285Z,13.63
2022-10-10T18:59:03.482Z,12.55
2022-10-10T19:01:35.178Z,13.43
2022-10-10T19:04:06.296Z,12.95
2022-10-10T19:06:34.800Z,15.82
2022-10-10T19:09:03.820Z,14.00
2022-10-10T19:11:34.584Z,14.10
2022-10-10T19:14:05.440Z,14.50
2022-10-10T19:16:34.563Z,13.77
2022-10-10T19:19:05.171Z,15.07
2022-10-10T19:21:35.232Z,15.80
2022-10-10T19:24:06.164Z,14.88
2022-10-10T19:26:35.223Z,15.57
2022-10-10T19:29:07.349Z,16.92
2022-10-10T19:31:36.787Z,16.95
2022-10-10T19:34:06.608Z,15.27
2022-10-10T19:36:38.421Z,16.98
2022-10-10T19:39:08.770Z,17.05
2022-10-10T19:41:36.985Z,17.92
2022-10-10T19:44:05.816Z,17.08
2022-10-10T19:46:37.353Z,18.20
2022-10-10T19:49:07.926Z,16.90
2022-10-10T19:51:36.332Z,17.83
2022-10-10T19:54:04.787Z,17.38
2022-10-10T19:56:33.003Z,18.27
2022-10-10T19:59:04.426Z,21.58
2022-10-10T20:01:33.345Z,20.73
2022-10-10T20:04:01.685Z,20.00
2022-10-10T20:06:31.477Z,18.00
2022-10-10T20:08:59.842Z,19.17
2022-10-10T20:11:28.127Z,18.67
2022-10-10T20:13:57.488Z,19.52
2022-10-10T20:16:27.672Z,18.92
2022-10-10T20:18:58.140Z,19.52
2022-10-10T20:21:31.464Z,18.90
2022-10-10T20:24:03.047Z,15.70
2022-10-10T20:26:31.595Z,16.73
2022-10-10T20:29:00.360Z,17.63
2022-10-10T20:31:30.769Z,17.17
2022-10-10T20:34:01.683Z,16.20
2022-10-10T20:36:31.055Z,17.40
2022-10-10T20:39:04.766Z,18.33
2022-10-10T20:41:34.998Z,17.42
2022-10-10T20:44:05.741Z,19.38
2022-10-10T20:46:36.126Z,19.55
2022-10-10T20:49:07.510Z,19.60
2022-10-10T20:51:35.746Z,18.25
2022-10-10T20:54:07.076Z,18.60
2022-10-10T20:56:37.056Z,18.55
2022-10-10T20:59:06.849Z,17.50
2022-10-10T21:01:35.891Z,17.60
2022-10-10T21:04:05.357Z,16.58
2022-10-10T21:06:35.438Z,16.40
2022-10-10T21:09:08.506Z,18.10
2022-10-10T21:11:39.048Z,18.80
2022-10-10T21:14:07.735Z,18.45
2022-10-10T21:16:37.797Z,17.25
2022-10-10T21:19:09.104Z,16.80
2022-10-10T21:21:37.850Z,16.63
2022-10-10T21:24:12.043Z,16.33
2022-10-10T21:26:41.574Z,15.70
2022-10-10T21:29:10.154Z,16.13
2022-10-10T21:31:40.044Z,16.50
2022-10-10T21:34:13.284Z,17.20
2022-10-10T21:36:41.877Z,17.15
2022-10-10T21:39:12.368Z,16.90
2022-10-10T21:41:40.945Z,15.18
2022-10-10T21:44:10.760Z,15.98
2022-10-10T21:46:39.526Z,15.75
2022-10-10T21:49:10.217Z,18.98
2022-10-10T21:51:41.503Z,16.50
2022-10-10T21:54:12.073Z,14.68
2022-10-10T21:56:40.812Z,15.48
2022-10-10T21:59:09.329Z,15.70
2022-10-10T22:01:37.897Z,15.52
2022-10-10T22:04:06.735Z,15.35
2022-10-10T22:06:35.375Z,14.68
2022-10-10T22:09:04.048Z,15.68
2022-10-10T22:11:35.261Z,14.20
2022-10-10T22:14:03.672Z,13.75
2022-10-10T22:16:32.624Z,13.57
2022-10-10T22:19:01.948Z,15.00
2022-10-10T22:21:32.487Z,15.10
2022-10-10T22:24:02.533Z,13.98
2022-10-10T22:26:31.648Z,14.07
2022-10-10T22:29:01.366Z,13.75
2022-10-10T22:31:30.091Z,13.68
2022-10-10T22:33:58.801Z,15.20
2022-10-10T22:36:27.200Z,16.02
2022-10-10T22:38:55.714Z,14.38
2022-10-10T22:41:23.798Z,13.45
2022-10-10T22:43:52.115Z,12.48
2022-10-10T22:46:21.751Z,12.80
2022-10-10T22:48:49.863Z,13.38
2022-10-10T22:51:19.158Z,13.20
2022-10-10T22:53:48.996Z,12.43
2022-10-10T22:56:20.173Z,12.20
2022-10-10T22:58:51.353Z,11.90
2022-10-10T23:01:24.076Z,12.45
2022-10-10T23:03:55.920Z,12.90
2022-10-10T23:06:24.165Z,12.57
2022-10-10T23:08:52.497Z,12.00
2022-10-10T23:11:20.686Z,12.93
2022-10-10T23:13:48.861Z,11.40
2022-10-10T23:16:17.134Z,10.75
2022-10-10T23:18:46.672Z,11.75
2022-10-10T23:21:14.864Z,11.48
2022-10-10T23:23:43.553Z,11.15
2022-10-10T23:26:12.183Z,11.98
2022-10-10T23:28:40.274Z,10.73
2022-10-10T23:31:10.383Z,10.48
2022-10-10T23:33:39.142Z,11.00
2022-10-10T23:36:12.126Z,10.88
2022-10-10T23:38:41.256Z,11.32
2022-10-10T23:41:10.031Z,11.68
2022-10-10T23:43:38.454Z,10.02
2022-10-10T23:46:07.647Z,9.55
2022-10-10T23:48:36.831Z,10.65
2022-10-10T23:51:05.214Z,9.93
2022-10-10T23:53:35.223Z,10.05
2022-10-10T23:56:03.864Z,10.60
2022-10-10T23:58:32.282Z,11.05
